Time;durP1;ratioP1;P1;durP2;ratioP2;P2;SDS_P1;SDS_P2;PMS_P1;PMS_P2;Temp;Humidity;BMP_temperature;BMP_pressure;BME280_temperature;BME280_humidity;BME280_pressure;Samples;Min_cycle;Max_cycle;Signal;HPM_P1;HPM_P2
2023/03/21 00:00:01;;;;;;;6.95;4.50;;;;;;;6.36;100.00;96014.19;1020466;29;20475;-76
2023/03/21 00:00:31;;;;;;;7.25;4.65;;;;;;;6.41;100.00;96023.94;1020295;29;20087;-78
2023/03/21 00:01:03;;;;;;;6.60;4.07;;;;;;;6.40;100.00;96016.34;1015792;29;20024;-76
2023/03/21 00:01:33;;;;;;;6.43;3.88;;;;;;;6.41;100.00;96021.34;1016124;29;20091;-78
2023/03/21 00:02:04;;;;;;;8.80;3.80;;;;;;;6.38;100.00;96016.59;1019891;29;20295;-76
2023/03/21 00:02:34;;;;;;;5.25;3.40;;;;;;;6.41;100.00;96028.38;1020046;29;20024;-76
2023/03/21 00:03:05;;;;;;;4.75;3.90;;;;;;;6.32;100.00;96009.69;1023801;29;20023;-76
2023/03/21 00:03:36;;;;;;;6.82;3.88;;;;;;;6.29;100.00;96007.53;1016345;29;20299;-76
2023/03/21 00:04:07;;;;;;;5.80;3.85;;;;;;;6.32;100.00;96015.69;1016605;29;20039;-77
2023/03/21 00:04:37;;;;;;;5.85;3.85;;;;;;;6.33;100.00;96017.25;1023798;29;20603;-78
2023/03/21 00:05:08;;;;;;;4.38;3.42;;;;;;;6.32;100.00;96028.72;1020272;29;20051;-77
2023/03/21 00:05:41;;;;;;;7.00;4.28;;;;;;;6.25;100.00;96012.41;1023902;29;20027;-76
2023/03/21 00:06:12;;;;;;;5.68;3.92;;;;;;;6.16;100.00;96003.34;1019748;29;20503;-77
2023/03/21 00:06:43;;;;;;;6.50;4.05;;;;;;;6.25;100.00;96022.03;1016233;29;20388;-76
2023/03/21 00:07:13;;;;;;;8.40;4.22;;;;;;;6.32;100.00;96025.31;1016207;29;20025;-78
2023/03/21 00:07:43;;;;;;;7.13;4.40;;;;;;;6.35;100.00;96027.47;1023952;28;20023;-78
2023/03/21 00:08:14;;;;;;;6.32;4.13;;;;;;;6.25;100.00;96009.81;1024254;28;20461;-75
2023/03/21 00:08:45;;;;;;;6.18;3.78;;;;;;;6.33;100.00;96019.88;1024302;29;20031;-79
2023/03/21 00:09:15;;;;;;;6.10;3.63;;;;;;;6.30;100.00;96020.31;1020144;29;20049;-78
2023/03/21 00:09:46;;;;;;;6.00;3.97;;;;;;;6.36;100.00;96026.44;1020535;29;20062;-76
2023/03/21 00:10:17;;;;;;;6.03;3.95;;;;;;;6.32;100.00;96014.88;1028465;28;20065;-75
2023/03/21 00:10:47;;;;;;;5.70;3.78;;;;;;;6.34;100.00;96020.69;1028071;28;20112;-78
2023/03/21 00:11:18;;;;;;;7.45;4.20;;;;;;;6.31;100.00;96015.91;1016166;29;20381;-78
2023/03/21 00:11:48;;;;;;;11.15;3.58;;;;;;;6.35;100.00;96023.03;1011959;29;20029;-78
2023/03/21 00:12:19;;;;;;;5.40;3.78;;;;;;;6.35;100.00;96017.84;1015848;29;20020;-80
2023/03/21 00:12:57;;;;;;;4.05;3.28;;;;;;;6.29;100.00;96012.75;1012213;29;20127;-78
2023/03/21 00:13:31;;;;;;;6.68;3.90;;;;;;;6.33;100.00;96017.25;1015779;29;20276;-77
2023/03/21 00:14:01;;;;;;;6.32;3.88;;;;;;;6.23;100.00;95998.81;1019831;29;20282;-77
2023/03/21 00:14:32;;;;;;;5.35;4.10;;;;;;;6.22;100.00;96007.66;1021631;29;20788;-78
2023/03/21 00:15:05;;;;;;;4.60;3.83;;;;;;;6.24;100.00;96000.41;1020491;29;20119;-79
2023/03/21 00:15:49;;;;;;;5.97;3.88;;;;;;;6.31;100.00;96008.09;1019515;29;20050;-76
2023/03/21 00:16:19;;;;;;;7.40;4.00;;;;;;;6.32;100.00;96018.28;1028629;28;20339;-77
2023/03/21 00:16:50;;;;;;;6.00;4.05;;;;;;;6.30;100.00;96011.72;1023701;28;20267;-78
2023/03/21 00:17:21;;;;;;;5.45;4.03;;;;;;;6.27;100.00;96006.94;1027847;28;20026;-78
2023/03/21 00:18:02;;;;;;;6.05;3.90;;;;;;;6.25;100.00;96001.19;1019480;29;20577;-77
2023/03/21 00:18:35;;;;;;;5.53;3.95;;;;;;;6.25;100.00;95996.78;1020050;29;20267;-76
2023/03/21 00:19:06;;;;;;;4.75;3.78;;;;;;;6.30;100.00;96006.50;1027989;28;20376;-78
2023/03/21 00:19:37;;;;;;;5.47;3.65;;;;;;;6.24;100.00;95991.81;1023546;29;20321;-77
2023/03/21 00:20:14;;;;;;;7.18;4.13;;;;;;;6.36;100.00;96002.97;1019613;29;20461;-77
2023/03/21 00:20:45;;;;;;;4.47;3.58;;;;;;;6.28;100.00;95985.91;1019736;29;20272;-77
2023/03/21 00:21:19;;;;;;;9.10;4.30;;;;;;;6.30;100.00;95994.25;1022992;29;20261;-78
2023/03/21 00:21:51;;;;;;;7.50;4.00;;;;;;;6.36;100.00;96002.97;1027428;28;20373;-77
2023/03/21 00:22:21;;;;;;;4.80;3.58;;;;;;;6.34;100.00;96005.84;1024154;29;20271;-79
2023/03/21 00:22:52;;;;;;;5.47;3.78;;;;;;;6.33;100.00;96006.84;1016481;29;20264;-77
2023/03/21 00:23:23;;;;;;;5.22;3.60;;;;;;;6.37;100.00;95999.34;1011807;29;20021;-78
2023/03/21 00:23:54;;;;;;;5.50;3.95;;;;;;;6.26;100.00;95987.91;1015768;29;20064;-78
2023/03/21 00:24:24;;;;;;;6.18;3.88;;;;;;;6.37;100.00;96004.56;1024014;29;20269;-78
2023/03/21 00:24:55;;;;;;;4.13;3.70;;;;;;;6.27;100.00;95992.13;1016073;29;20056;-76
2023/03/21 00:25:25;;;;;;;5.82;4.13;;;;;;;6.28;100.00;95996.31;1019910;29;20400;-76
2023/03/21 00:25:56;;;;;;;7.70;3.92;;;;;;;6.25;100.00;95988.16;1032030;28;20026;-77
2023/03/21 00:26:26;;;;;;;6.88;4.30;;;;;;;6.26;100.00;95993.13;1027701;28;20026;-78
2023/03/21 00:26:57;;;;;;;4.40;3.85;;;;;;;6.34;100.00;96007.66;1019832;29;20028;-77
2023/03/21 00:27:27;;;;;;;5.30;3.72;;;;;;;6.30;100.00;95999.47;1023796;29;20152;-80
2023/03/21 00:27:58;;;;;;;5.68;4.05;;;;;;;6.28;100.00;95990.31;1019931;29;20028;-79
2023/03/21 00:28:29;;;;;;;5.28;3.65;;;;;;;6.31;100.00;96005.50;1024316;28;20051;-79
2023/03/21 00:28:59;;;;;;;5.63;3.97;;;;;;;6.33;100.00;96001.63;1028233;28;20042;-78
2023/03/21 00:29:30;;;;;;;7.40;4.13;;;;;;;6.06;100.00;95961.44;1024083;29;20025;-77
2023/03/21 00:30:00;;;;;;;6.80;4.18;;;;;;;6.30;100.00;96002.06;1023711;28;20148;-78
2023/03/21 00:30:30;;;;;;;6.13;4.28;;;;;;;6.26;100.00;96000.94;1031482;28;20025;-80
2023/03/21 00:31:01;;;;;;;7.22;3.83;;;;;;;6.31;100.00;96010.72;1032023;28;20026;-78
2023/03/21 00:31:32;;;;;;;5.65;4.00;;;;;;;6.31;100.00;96006.28;1027825;28;20054;-79
2023/03/21 00:32:03;;;;;;;9.88;4.40;;;;;;;6.24;100.00;96000.41;1023783;28;20114;-79
2023/03/21 00:32:33;;;;;;;7.40;3.47;;;;;;;6.24;100.00;95997.81;1016267;29;20032;-77
2023/03/21 00:33:03;;;;;;;5.88;3.90;;;;;;;6.19;100.00;95997.69;1011895;29;20044;-78
2023/03/21 00:33:34;;;;;;;4.63;3.50;;;;;;;6.23;100.00;96004.00;1016127;29;20056;-77
2023/03/21 00:34:05;;;;;;;6.88;3.60;;;;;;;6.21;100.00;96000.06;1016320;29;20051;-78
2023/03/21 00:34:37;;;;;;;6.40;3.90;;;;;;;6.20;100.00;95998.47;1019952;29;20512;-78
2023/03/21 00:35:07;;;;;;;6.70;4.05;;;;;;;6.21;100.00;96000.84;1020269;29;20597;-77
2023/03/21 00:35:43;;;;;;;5.43;4.00;;;;;;;6.25;100.00;96007.19;1019968;29;20386;-78
2023/03/21 00:36:14;;;;;;;5.63;4.25;;;;;;;6.17;100.00;96004.13;1015667;29;20020;-78
2023/03/21 00:36:45;;;;;;;5.63;3.60;;;;;;;6.25;100.00;96012.41;1012692;29;20323;-79
2023/03/21 00:37:17;;;;;;;5.25;3.90;;;;;;;6.24;100.00;96005.63;1031987;28;20664;-78
2023/03/21 00:37:48;;;;;;;6.30;4.55;;;;;;;6.24;100.00;96005.63;1036798;28;20599;-79
2023/03/21 00:38:19;;;;;;;5.80;3.95;;;;;;;6.24;100.00;96010.03;1023892;29;20277;-76
2023/03/21 00:38:50;;;;;;;4.90;3.67;;;;;;;6.20;100.00;95995.88;1027598;28;20050;-79
2023/03/21 00:39:21;;;;;;;5.55;3.92;;;;;;;5.99;100.00;95971.19;1024159;28;20728;-79
2023/03/21 00:39:52;;;;;;;6.30;4.95;;;;;;;6.17;100.00;95996.31;1024297;28;20769;-76
2023/03/21 00:40:22;;;;;;;7.50;3.92;;;;;;;6.26;100.00;96013.19;1019961;29;20027;-78
2023/03/21 00:40:53;;;;;;;4.72;3.58;;;;;;;6.22;100.00;95997.22;1023947;28;20035;-80
2023/03/21 00:41:23;;;;;;;6.53;4.55;;;;;;;6.26;100.00;96008.78;1020331;29;20023;-78
2023/03/21 00:41:54;;;;;;;5.70;3.97;;;;;;;6.26;100.00;96005.38;1023707;29;20031;-78
2023/03/21 00:42:25;;;;;;;6.30;4.03;;;;;;;6.23;100.00;96004.00;1020124;29;20111;-78
2023/03/21 00:42:55;;;;;;;5.80;3.65;;;;;;;6.03;100.00;95967.09;1023961;28;20097;-77
2023/03/21 00:43:29;;;;;;;6.15;3.88;;;;;;;6.23;100.00;96008.44;1023875;29;20039;-77
2023/03/21 00:43:59;;;;;;;6.47;3.70;;;;;;;6.17;100.00;95989.31;1019989;29;20110;-76
2023/03/21 00:44:35;;;;;;;5.60;3.58;;;;;;;6.21;100.00;95997.47;1011983;29;20277;-79
2023/03/21 00:45:09;;;;;;;7.65;4.10;;;;;;;6.13;100.00;95988.16;1015888;29;20418;-78
2023/03/21 00:45:40;;;;;;;5.20;3.55;;;;;;;6.29;100.00;95997.91;1015669;29;20271;-77
2023/03/21 00:46:10;;;;;;;5.70;4.15;;;;;;;6.19;100.00;95984.66;1017162;29;20268;-78
2023/03/21 00:46:41;;;;;;;5.22;3.63;;;;;;;6.25;100.00;95996.78;1019775;29;20024;-77
2023/03/21 00:47:11;;;;;;;5.80;3.83;;;;;;;6.25;100.00;95995.97;1019678;29;20034;-77
2023/03/21 00:47:42;;;;;;;7.47;4.10;;;;;;;6.26;100.00;95993.13;1020003;29;20028;-78
2023/03/21 00:48:12;;;;;;;6.43;3.97;;;;;;;6.23;100.00;95985.78;1016221;29;20447;-78
2023/03/21 00:48:43;;;;;;;4.85;3.65;;;;;;;6.24;100.00;95995.19;1020186;29;20023;-78
2023/03/21 00:49:13;;;;;;;4.80;3.50;;;;;;;6.23;100.00;95988.38;1019971;29;20061;-78
2023/03/21 00:49:44;;;;;;;5.50;3.72;;;;;;;6.19;100.00;95982.03;1016459;29;20035;-75
2023/03/21 00:50:14;;;;;;;8.05;5.15;;;;;;;6.25;100.00;95985.56;1024060;28;20086;-78
2023/03/21 00:50:45;;;;;;;6.07;3.20;;;;;;;6.28;100.00;95987.72;1019397;29;20501;-78
2023/03/21 00:51:25;;;;;;;5.90;3.75;;;;;;;6.31;100.00;95993.25;1012460;29;20020;-78
2023/03/21 00:51:55;;;;;;;5.65;3.88;;;;;;;6.31;100.00;95993.25;1024396;29;20604;-78
2023/03/21 00:52:25;;;;;;;5.70;3.88;;;;;;;6.17;100.00;95970.25;1023899;29;20274;-78
2023/03/21 00:52:56;;;;;;;5.05;3.90;;;;;;;6.27;100.00;95986.09;1020355;29;20035;-77
2023/03/21 00:53:27;;;;;;;11.18;4.07;;;;;;;6.14;100.00;95958.50;1023768;29;20047;-76
2023/03/21 00:53:57;;;;;;;6.18;4.03;;;;;;;6.32;100.00;95992.22;1024119;29;20469;-78
2023/03/21 00:54:28;;;;;;;7.00;3.92;;;;;;;6.24;100.00;95984.78;1015677;29;20035;-77
2023/03/21 00:54:58;;;;;;;5.30;3.97;;;;;;;6.24;100.00;95978.78;1020110;29;20091;-78
2023/03/21 00:55:29;;;;;;;4.80;3.90;;;;;;;6.21;100.00;95980.00;1023803;29;20027;-77
2023/03/21 00:55:59;;;;;;;5.93;3.67;;;;;;;6.24;100.00;95970.97;1026053;28;20082;-76
2023/03/21 00:56:30;;;;;;;5.13;3.53;;;;;;;6.31;100.00;95985.44;1022301;29;20086;-78
2023/03/21 00:57:02;;;;;;;6.55;3.97;;;;;;;6.30;100.00;95983.84;1019616;29;20024;-79
2023/03/21 00:57:32;;;;;;;7.25;3.85;;;;;;;6.16;100.00;95961.66;1019473;29;20047;-79
2023/03/21 00:58:04;;;;;;;4.53;4.13;;;;;;;6.24;100.00;95973.56;1020417;28;20319;-80
2023/03/21 00:58:34;;;;;;;5.80;3.83;;;;;;;6.27;100.00;95973.91;1019737;29;20163;-77
2023/03/21 00:59:05;;;;;;;6.05;3.83;;;;;;;6.29;100.00;95977.03;1015690;29;20323;-77
2023/03/21 00:59:35;;;;;;;5.28;3.75;;;;;;;6.21;100.00;95968.81;1019766;29;20035;-77
2023/03/21 01:00:09;;;;;;;5.30;3.50;;;;;;;6.22;100.00;95970.38;1019986;28;20240;-78
2023/03/21 01:00:40;;;;;;;8.18;3.63;;;;;;;6.25;100.00;95970.72;1019774;29;20036;-78
2023/03/21 01:01:10;;;;;;;8.43;3.97;;;;;;;6.26;100.00;95974.91;1018522;29;20778;-78
2023/03/21 01:01:41;;;;;;;6.07;4.30;;;;;;;6.08;100.00;95944.56;1023689;29;20031;-78
2023/03/21 01:02:13;;;;;;;6.22;3.75;;;;;;;6.28;100.00;95974.69;1024458;29;20055;-77
2023/03/21 01:02:55;;;;;;;7.15;3.92;;;;;;;6.23;100.00;95967.53;1023566;29;20055;-76
2023/03/21 01:03:27;;;;;;;5.30;3.65;;;;;;;6.27;100.00;95973.91;1015849;29;20299;-77
2023/03/21 01:04:03;;;;;;;4.95;4.03;;;;;;;6.23;100.00;95975.34;1015669;29;20313;-77
2023/03/21 01:04:34;;;;;;;4.70;3.33;;;;;;;6.23;100.00;95971.97;1015792;29;20268;-78
2023/03/21 01:05:04;;;;;;;6.75;3.95;;;;;;;6.12;100.00;95956.13;1020900;29;20595;-78
2023/03/21 01:06:31;;;;;;;6.70;3.63;;;;;;;6.28;100.00;95972.06;1020273;29;20024;-79
2023/03/21 01:07:01;;;;;;;4.70;3.60;;;;;;;6.22;100.00;95959.97;1015520;29;20272;-78
2023/03/21 01:07:32;;;;;;;4.68;3.60;;;;;;;6.17;100.00;95960.66;1015545;29;20280;-77
2023/03/21 01:08:02;;;;;;;4.72;3.33;;;;;;;6.19;100.00;95965.63;1015169;29;20031;-78
2023/03/21 01:08:36;;;;;;;5.68;3.63;;;;;;;6.04;100.00;95946.06;1015615;29;20178;-78
2023/03/21 01:09:11;;;;;;;5.35;3.67;;;;;;;6.21;100.00;95974.81;1019752;29;20044;-78
2023/03/21 01:09:42;;;;;;;5.72;3.85;;;;;;;6.14;100.00;95963.72;1015489;29;20279;-78
2023/03/21 01:10:12;;;;;;;7.65;4.13;;;;;;;6.17;100.00;95968.47;1011816;29;20273;-79
2023/03/21 01:10:45;;;;;;;7.85;3.58;;;;;;;6.18;100.00;95967.44;1016093;29;20016;-78
2023/03/21 01:11:17;;;;;;;4.65;3.40;;;;;;;6.11;100.00;95959.75;1019563;29;20035;-78
2023/03/21 01:11:48;;;;;;;4.88;3.80;;;;;;;6.13;100.00;95962.91;1020004;29;20299;-78
2023/03/21 01:12:18;;;;;;;4.85;3.70;;;;;;;6.15;100.00;95973.09;1013494;29;20756;-77
2023/03/21 01:12:49;;;;;;;7.57;4.15;;;;;;;6.17;100.00;95971.06;1018775;28;20666;-79
2023/03/21 01:13:20;;;;;;;6.38;3.90;;;;;;;6.15;100.00;95967.91;1019326;29;20056;-76
2023/03/21 01:13:51;;;;;;;5.43;3.63;;;;;;;6.10;100.00;95968.59;1019375;29;20028;-79
2023/03/21 01:14:22;;;;;;;4.43;3.50;;;;;;;6.12;100.00;95963.13;1023283;29;20819;-79
2023/03/21 01:14:52;;;;;;;4.57;3.58;;;;;;;6.18;100.00;95964.84;1019593;29;20482;-77
2023/03/21 01:15:23;;;;;;;5.60;3.92;;;;;;;6.00;100.00;95944.13;1015567;29;20043;-78
2023/03/21 01:15:56;;;;;;;6.18;4.10;;;;;;;6.14;100.00;95972.31;1011832;29;20094;-78
2023/03/21 01:16:27;;;;;;;4.90;3.60;;;;;;;6.07;100.00;95957.81;1016010;29;20021;-78
2023/03/21 01:16:57;;;;;;;5.07;3.50;;;;;;;6.09;100.00;95963.59;1023710;29;20306;-79
2023/03/21 01:17:28;;;;;;;5.38;3.42;;;;;;;6.10;100.00;95963.38;1015883;29;20430;-78
2023/03/21 01:17:58;;;;;;;6.13;3.80;;;;;;;6.05;100.00;95959.88;1019708;29;20040;-76
2023/03/21 01:18:29;;;;;;;4.93;3.72;;;;;;;6.03;100.00;95956.69;1011683;29;20551;-77
2023/03/21 01:18:59;;;;;;;5.45;4.30;;;;;;;6.15;100.00;95970.50;1012293;29;20025;-79
2023/03/21 01:19:30;;;;;;;11.13;4.00;;;;;;;6.08;100.00;95955.00;1016143;29;20032;-77
2023/03/21 01:20:01;;;;;;;6.63;3.85;;;;;;;5.97;100.00;95941.97;1019532;29;20040;-77
2023/03/21 01:20:31;;;;;;;5.95;3.83;;;;;;;6.12;100.00;95971.75;1016675;29;20680;-78
2023/03/21 01:21:05;;;;;;;5.22;4.03;;;;;;;6.07;100.00;95969.03;1015818;29;20364;-77
2023/03/21 01:21:36;;;;;;;5.97;3.65;;;;;;;6.09;100.00;95964.38;1016611;29;20028;-77
2023/03/21 01:22:07;;;;;;;6.78;4.20;;;;;;;5.98;100.00;95954.78;1015885;29;20658;-77
2023/03/21 01:22:37;;;;;;;5.93;3.58;;;;;;;6.08;100.00;95964.63;1016032;29;20020;-77
2023/03/21 01:23:08;;;;;;;5.63;3.90;;;;;;;6.03;100.00;95961.91;1021665;29;20275;-77
2023/03/21 01:23:40;;;;;;;6.05;4.82;;;;;;;6.07;100.00;95968.22;1018981;29;20019;-76
2023/03/21 01:24:10;;;;;;;5.68;4.10;;;;;;;6.03;100.00;95957.47;1020195;29;20030;-77
2023/03/21 01:24:41;;;;;;;6.80;4.35;;;;;;;6.01;100.00;95958.75;1018836;29;20275;-77
2023/03/21 01:25:11;;;;;;;4.93;3.78;;;;;;;6.09;100.00;95968.81;1011551;29;20096;-77
2023/03/21 01:25:42;;;;;;;6.35;4.47;;;;;;;5.91;100.00;95947.06;1015369;29;20020;-79
2023/03/21 01:26:12;;;;;;;5.43;3.75;;;;;;;6.07;100.00;95974.25;1019533;29;20167;-79
2023/03/21 01:26:43;;;;;;;6.35;4.55;;;;;;;5.98;100.00;95964.41;1011447;29;20111;-77
2023/03/21 01:27:13;;;;;;;7.30;4.53;;;;;;;6.03;100.00;95972.31;1011370;29;20079;-76
2023/03/21 01:27:44;;;;;;;5.80;3.72;;;;;;;5.99;100.00;95966.78;1015850;29;20013;-78
2023/03/21 01:28:15;;;;;;;8.23;4.82;;;;;;;6.02;100.00;95970.75;1023626;29;20291;-76
2023/03/21 01:28:45;;;;;;;10.07;4.93;;;;;;;5.96;100.00;95966.44;1019615;29;20043;-79
2023/03/21 01:29:16;;;;;;;6.05;4.15;;;;;;;6.05;100.00;95980.72;1015875;29;20016;-78
2023/03/21 01:29:46;;;;;;;5.68;4.22;;;;;;;6.01;100.00;95974.38;1015921;29;20027;-77
2023/03/21 01:30:17;;;;;;;6.40;4.15;;;;;;;5.88;100.00;95950.09;1015615;29;20032;-79
2023/03/21 01:30:48;;;;;;;4.30;3.70;;;;;;;5.86;100.00;95946.13;1015664;29;20665;-76
2023/03/21 01:31:19;;;;;;;4.30;3.58;;;;;;;6.00;100.00;95978.78;1011904;29;20078;-79
2023/03/21 01:31:49;;;;;;;7.00;4.05;;;;;;;6.02;100.00;95978.56;1011962;29;20370;-76
2023/03/21 01:32:20;;;;;;;5.72;4.13;;;;;;;5.96;100.00;95966.44;1007839;29;20134;-77
2023/03/21 01:32:51;;;;;;;5.47;4.00;;;;;;;5.95;100.00;95960.44;1011586;29;20020;-75
2023/03/21 01:33:22;;;;;;;8.82;4.40;;;;;;;5.96;100.00;95956.00;1016220;29;20028;-77
2023/03/21 01:33:52;;;;;;;5.93;3.95;;;;;;;5.98;100.00;95960.00;1015440;29;20038;-78
2023/03/21 01:34:23;;;;;;;6.10;3.70;;;;;;;6.05;100.00;95972.91;1015878;29;20024;-78
2023/03/21 01:34:53;;;;;;;5.68;4.40;;;;;;;5.97;100.00;95973.22;1019505;29;20518;-78
2023/03/21 01:35:24;;;;;;;7.25;4.22;;;;;;;6.04;100.00;95981.72;1015623;29;20072;-77
2023/03/21 01:35:54;;;;;;;6.70;3.95;;;;;;;6.02;100.00;95975.94;1020044;29;20023;-78
2023/03/21 01:36:25;;;;;;;5.82;4.30;;;;;;;6.01;100.00;95974.38;1023479;29;20098;-79
2023/03/21 01:36:56;;;;;;;7.25;4.05;;;;;;;5.97;100.00;95970.63;1011920;29;20029;-77
2023/03/21 01:37:26;;;;;;;5.85;4.10;;;;;;;5.96;100.00;95972.44;1012035;29;20033;-78
2023/03/21 01:37:57;;;;;;;5.88;3.95;;;;;;;5.91;100.00;95967.09;1008154;29;20039;-79
2023/03/21 01:38:27;;;;;;;10.43;3.85;;;;;;;5.86;100.00;95957.34;1012050;29;20031;-78
2023/03/21 01:38:58;;;;;;;6.10;4.05;;;;;;;5.94;100.00;95965.88;1015863;29;20054;-78
2023/03/21 01:39:29;;;;;;;9.23;5.40;;;;;;;5.94;100.00;95963.28;1019771;29;20341;-78
2023/03/21 01:39:59;;;;;;;4.55;3.60;;;;;;;5.97;100.00;95965.41;1019746;29;20051;-78
2023/03/21 01:40:30;;;;;;;4.72;3.75;;;;;;;6.03;100.00;95975.72;1016408;29;20525;-76
2023/03/21 01:41:01;;;;;;;5.95;4.30;;;;;;;5.94;100.00;95963.28;1015711;29;20060;-78
2023/03/21 01:41:37;;;;;;;7.05;4.40;;;;;;;6.02;100.00;95975.94;1015958;29;20025;-76
2023/03/21 01:42:11;;;;;;;5.88;4.35;;;;;;;6.03;100.00;95977.53;1015869;29;20650;-79
2023/03/21 01:42:42;;;;;;;5.53;3.83;;;;;;;5.96;100.00;95966.44;1019621;29;20267;-79
2023/03/21 01:43:18;;;;;;;5.75;4.18;;;;;;;6.04;100.00;95981.72;1021149;29;20267;-77
2023/03/21 01:43:49;;;;;;;6.10;3.95;;;;;;;6.03;100.00;95977.53;1017476;29;20031;-80
2023/03/21 01:44:19;;;;;;;6.28;4.28;;;;;;;6.00;100.00;95977.97;1017233;29;20448;-78
2023/03/21 01:44:53;;;;;;;7.03;4.10;;;;;;;6.01;100.00;95972.56;1016008;29;20059;-80
2023/03/21 01:46:01;;;;;;;5.32;4.28;;;;;;;6.00;100.00;95977.97;1024409;28;20464;-78
2023/03/21 01:46:48;;;;;;;5.35;4.45;;;;;;;5.99;100.00;95971.19;1023691;29;20770;-77
2023/03/21 01:47:18;;;;;;;6.82;3.67;;;;;;;6.00;100.00;95967.56;1022437;28;20345;-78
2023/03/21 01:47:49;;;;;;;8.30;4.85;;;;;;;6.06;100.00;95974.47;1012461;29;20533;-77
2023/03/21 01:48:19;;;;;;;6.88;3.97;;;;;;;5.99;100.00;95958.16;1012112;29;20032;-77
2023/03/21 01:49:00;;;;;;;7.60;4.43;;;;;;;6.07;100.00;95978.66;1016073;29;20395;-79
2023/03/21 01:49:33;;;;;;;6.30;3.90;;;;;;;6.02;100.00;95968.13;1015656;29;20035;-78
2023/03/21 01:50:05;;;;;;;7.70;4.47;;;;;;;6.09;100.00;95969.59;1020026;29;20264;-77
2023/03/21 01:50:35;;;;;;;5.93;4.20;;;;;;;6.04;100.00;95963.50;1015918;29;20537;-77
2023/03/21 01:51:07;;;;;;;4.97;3.92;;;;;;;6.00;100.00;95959.75;1015960;29;20643;-78
2023/03/21 01:51:41;;;;;;;6.72;3.97;;;;;;;6.04;100.00;95964.28;1023473;29;20442;-77
2023/03/21 01:52:15;;;;;;;5.68;3.83;;;;;;;6.04;100.00;95963.50;1011947;29;20284;-76
2023/03/21 01:52:48;;;;;;;6.00;3.90;;;;;;;6.03;100.00;95962.69;1019589;29;20263;-77
2023/03/21 01:53:20;;;;;;;5.63;4.20;;;;;;;6.00;100.00;95957.13;1027856;28;20365;-79
2023/03/21 01:53:50;;;;;;;7.97;4.80;;;;;;;6.08;100.00;95972.44;1016025;29;20288;-77
2023/03/21 01:54:24;;;;;;;7.78;4.55;;;;;;;6.03;100.00;95964.50;1020270;29;20275;-79
2023/03/21 01:54:54;;;;;;;7.25;3.90;;;;;;;6.02;100.00;95965.53;1008307;29;20112;-77
2023/03/21 01:55:25;;;;;;;5.28;3.78;;;;;;;6.04;100.00;95966.09;1012007;29;20395;-77
2023/03/21 01:55:59;;;;;;;5.05;3.95;;;;;;;6.03;100.00;95969.72;1019338;29;20016;-77
2023/03/21 01:56:32;;;;;;;7.05;3.97;;;;;;;6.06;100.00;95964.84;1011720;29;20594;-77
2023/03/21 01:57:05;;;;;;;7.07;4.45;;;;;;;6.01;100.00;95958.75;1008316;29;20277;-77
2023/03/21 01:57:45;;;;;;;7.20;4.47;;;;;;;6.01;100.00;95962.13;1015908;29;20268;-77
2023/03/21 01:58:19;;;;;;;5.53;4.00;;;;;;;6.07;100.00;95965.63;1019942;29;20271;-76
2023/03/21 01:58:50;;;;;;;6.03;3.85;;;;;;;6.00;100.00;95949.31;1016019;29;20031;-77
2023/03/21 01:59:33;;;;;;;4.45;3.47;;;;;;;6.10;100.00;95972.97;1020107;29;20283;-79
2023/03/21 02:00:11;;;;;;;5.43;3.50;;;;;;;6.07;100.00;95960.41;1019636;29;20275;-76
2023/03/21 02:00:42;;;;;;;6.05;4.00;;;;;;;6.07;100.00;95953.41;1019839;29;20279;-76
2023/03/21 02:01:14;;;;;;;6.05;3.42;;;;;;;6.12;100.00;95970.97;1015693;29;20711;-79
2023/03/21 02:01:45;;;;;;;4.15;3.25;;;;;;;6.04;100.00;95953.88;1019859;29;20024;-80
2023/03/21 02:02:22;;;;;;;4.80;3.63;;;;;;;6.02;100.00;95949.91;1019300;29;20623;-78
2023/03/21 02:02:58;;;;;;;6.05;3.92;;;;;;;6.11;100.00;95964.97;1014524;29;20419;-77
2023/03/21 02:03:36;;;;;;;6.32;4.13;;;;;;;6.12;100.00;95960.53;1014152;29;20273;-77
2023/03/21 02:04:07;;;;;;;6.95;4.18;;;;;;;6.08;100.00;95954.22;1015953;29;20355;-77
2023/03/21 02:04:38;;;;;;;6.28;3.45;;;;;;;6.05;100.00;95960.66;1022878;29;20368;-78
2023/03/21 02:05:08;;;;;;;4.65;3.53;;;;;;;6.16;100.00;95963.47;1023555;28;20859;-77
2023/03/21 02:05:48;;;;;;;6.47;3.88;;;;;;;6.16;100.00;95960.88;1024057;29;20023;-79
2023/03/21 02:06:30;;;;;;;5.22;3.53;;;;;;;6.16;100.00;95961.66;1015866;29;20312;-78
2023/03/21 02:07:03;;;;;;;6.97;4.85;;;;;;;6.09;100.00;95961.00;1018710;29;20279;-77
2023/03/21 02:07:34;;;;;;;4.75;3.45;;;;;;;6.09;100.00;95955.78;1018848;29;20551;-77
2023/03/21 02:08:05;;;;;;;5.97;3.80;;;;;;;6.12;100.00;95963.13;1015670;29;20268;-78
2023/03/21 02:08:35;;;;;;;8.23;4.28;;;;;;;6.13;100.00;95962.91;1012038;29;20028;-78
2023/03/21 02:09:08;;;;;;;4.75;3.53;;;;;;;5.91;100.00;95923.63;1012051;29;20021;-76
2023/03/21 02:09:39;;;;;;;7.13;4.30;;;;;;;6.08;100.00;95960.19;1018149;29;20357;-76
2023/03/21 02:10:11;;;;;;;6.03;3.75;;;;;;;6.14;100.00;95961.13;1019766;29;20741;-77
2023/03/21 02:10:42;;;;;;;4.28;3.20;;;;;;;6.13;100.00;95946.47;1019506;29;20604;-76
2023/03/21 02:11:13;;;;;;;5.32;3.20;;;;;;;6.16;100.00;95958.25;1023633;29;20282;-78
2023/03/21 02:11:45;;;;;;;6.68;3.97;;;;;;;6.07;100.00;95948.22;1015820;29;20276;-76
2023/03/21 02:12:17;;;;;;;6.88;3.90;;;;;;;6.06;100.00;95946.59;1023736;28;20081;-76
2023/03/21 02:12:48;;;;;;;4.43;3.60;;;;;;;6.13;100.00;95952.47;1019383;29;20938;-78
2023/03/21 02:13:18;;;;;;;10.55;4.10;;;;;;;6.12;100.00;95952.72;1015327;29;20305;-78
2023/03/21 02:13:49;;;;;;;6.40;3.58;;;;;;;6.11;100.00;95951.94;1015376;29;20031;-77
2023/03/21 02:14:20;;;;;;;5.45;3.97;;;;;;;6.14;100.00;95963.72;1015731;29;20035;-77
2023/03/21 02:14:50;;;;;;;4.82;3.50;;;;;;;6.13;100.00;95962.13;1015912;29;20025;-79
2023/03/21 02:15:22;;;;;;;6.18;4.03;;;;;;;6.09;100.00;95951.34;1015507;29;20427;-78
2023/03/21 02:16:00;;;;;;;4.45;3.72;;;;;;;6.16;100.00;95956.44;1015797;29;20040;-78
2023/03/21 02:16:40;;;;;;;5.28;3.58;;;;;;;6.17;100.00;95952.03;1022330;29;20266;-76
2023/03/21 02:17:35;;;;;;;5.68;3.53;;;;;;;6.18;100.00;95953.63;1027739;28;20262;-76
2023/03/21 02:18:14;;;;;;;9.25;4.25;;;;;;;6.19;100.00;95945.56;1023061;28;20665;-78
2023/03/21 02:19:03;;;;;;;6.80;3.70;;;;;;;6.21;100.00;95947.97;1027090;28;20274;-77
2023/03/21 02:19:49;;;;;;;5.63;3.95;;;;;;;6.19;100.00;95950.00;1027491;28;20246;-77
2023/03/21 02:20:49;;;;;;;5.43;3.17;;;;;;;6.20;100.00;95952.34;1028029;28;20795;-78
2023/03/21 02:24:54;;;;;;;4.78;3.65;;;;;;;6.18;100.00;95948.41;1056908;23;20285;-67
2023/03/21 02:25:42;;;;;;;7.10;4.55;;;;;;;6.17;100.00;95955.44;1039363;28;20260;-68
2023/03/21 02:26:46;;;;;;;5.07;3.50;;;;;;;6.18;100.00;95951.81;1035322;28;20265;-67
2023/03/21 02:27:17;;;;;;;4.88;4.00;;;;;;;6.19;100.00;95950.78;1034727;28;20260;-67
2023/03/21 02:27:58;;;;;;;4.95;3.55;;;;;;;6.17;100.00;95942.41;1033210;28;20308;-67
2023/03/21 02:28:55;;;;;;;5.80;3.70;;;;;;;6.17;100.00;95950.22;1023097;29;20341;-67
2023/03/21 02:29:44;;;;;;;6.60;3.85;;;;;;;6.18;100.00;95949.22;1023851;28;20050;-69
2023/03/21 02:30:26;;;;;;;6.05;3.85;;;;;;;6.17;100.00;95952.03;1031875;28;20346;-68
2023/03/21 02:31:00;;;;;;;7.20;3.28;;;;;;;6.17;100.00;95952.84;1035174;28;20339;-68
2023/03/21 02:31:40;;;;;;;6.22;4.57;;;;;;;6.19;100.00;95952.59;1031229;28;20256;-67
2023/03/21 02:32:29;;;;;;;;;;;;;;;6.16;100.00;95946.03;1033701;28;20266;-69
2023/03/21 02:33:15;;;;;;;3.92;3.08;;;;;;;6.17;100.00;95950.22;1035302;28;19992;-67
2023/03/21 02:34:03;;;;;;;5.75;3.70;;;;;;;6.16;100.00;95947.84;1030915;28;20270;-69
2023/03/21 02:35:01;;;;;;;5.25;3.63;;;;;;;6.17;100.00;95947.63;1031309;28;20264;-68
2023/03/21 02:35:53;;;;;;;4.70;3.72;;;;;;;6.18;100.00;95954.41;1032986;28;20245;-70
2023/03/21 02:36:49;;;;;;;5.13;3.33;;;;;;;6.16;100.00;95946.03;1035439;28;20264;-69
2023/03/21 02:37:28;;;;;;;5.05;3.67;;;;;;;6.12;100.00;95944.91;1035600;28;20310;-69
2023/03/21 02:38:16;;;;;;;5.68;3.90;;;;;;;6.15;100.00;95952.25;1027105;28;20282;-69
2023/03/21 02:38:57;;;;;;;8.38;3.67;;;;;;;6.19;100.00;95953.38;1019031;29;20363;-70
2023/03/21 02:39:33;;;;;;;;;;;;;;;6.20;100.00;95946.34;1019430;29;20267;-69
2023/03/21 02:40:08;;;;;;;6.50;3.85;;;;;;;6.16;100.00;95946.03;1027353;28;19910;-69
2023/03/21 02:40:46;;;;;;;7.28;4.13;;;;;;;6.18;100.00;95949.22;1030237;28;20307;-69